sensor_id;sensor_type;location;lat;lon;timestamp;temperature;humidity
46752;DHT22;32497;48.936;9.270;2022-07-29T00:04:46;19.10;78.00
46752;DHT22;32497;48.936;9.270;2022-07-29T00:09:48;19.10;78.50
46752;DHT22;32497;48.936;9.270;2022-07-29T00:14:51;19.00;78.60
46752;DHT22;32497;48.936;9.270;2022-07-29T00:19:52;19.00;79.10
46752;DHT22;32497;48.936;9.270;2022-07-29T00:24:53;19.00;79.20
46752;DHT22;32497;48.936;9.270;2022-07-29T00:29:55;19.00;79.50
46752;DHT22;32497;48.936;9.270;2022-07-29T00:34:56;18.80;80.20
46752;DHT22;32497;48.936;9.270;2022-07-29T00:39:58;18.70;80.70
46752;DHT22;32497;48.936;9.270;2022-07-29T00:45:00;18.60;81.00
46752;DHT22;32497;48.936;9.270;2022-07-29T00:50:01;18.60;80.70
46752;DHT22;32497;48.936;9.270;2022-07-29T00:55:03;18.50;80.10
46752;DHT22;32497;48.936;9.270;2022-07-29T01:00:08;18.60;80.50
46752;DHT22;32497;48.936;9.270;2022-07-29T01:05:11;18.60;80.40
46752;DHT22;32497;48.936;9.270;2022-07-29T01:10:13;18.60;80.30
46752;DHT22;32497;48.936;9.270;2022-07-29T01:15:16;18.40;80.40
46752;DHT22;32497;48.936;9.270;2022-07-29T01:20:23;18.30;81.00
46752;DHT22;32497;48.936;9.270;2022-07-29T01:25:39;18.20;81.70
46752;DHT22;32497;48.936;9.270;2022-07-29T01:30:48;18.20;81.30
46752;DHT22;32497;48.936;9.270;2022-07-29T01:35:51;18.20;81.60
46752;DHT22;32497;48.936;9.270;2022-07-29T01:40:56;18.10;82.20
46752;DHT22;32497;48.936;9.270;2022-07-29T01:46:04;17.90;83.00
46752;DHT22;32497;48.936;9.270;2022-07-29T01:51:17;17.90;83.00
46752;DHT22;32497;48.936;9.270;2022-07-29T01:56:20;17.90;83.20
46752;DHT22;32497;48.936;9.270;2022-07-29T02:01:24;17.90;83.30
46752;DHT22;32497;48.936;9.270;2022-07-29T02:06:27;18.00;83.00
46752;DHT22;32497;48.936;9.270;2022-07-29T02:11:31;18.00;82.60
46752;DHT22;32497;48.936;9.270;2022-07-29T02:16:36;17.80;83.00
46752;DHT22;32497;48.936;9.270;2022-07-29T02:21:38;17.90;82.60
46752;DHT22;32497;48.936;9.270;2022-07-29T02:26:41;17.80;82.60
46752;DHT22;32497;48.936;9.270;2022-07-29T02:31:46;17.90;82.50
46752;DHT22;32497;48.936;9.270;2022-07-29T02:36:49;17.80;82.30
46752;DHT22;32497;48.936;9.270;2022-07-29T02:41:55;17.70;82.10
46752;DHT22;32497;48.936;9.270;2022-07-29T02:47:03;17.60;82.60
46752;DHT22;32497;48.936;9.270;2022-07-29T02:52:09;17.40;83.30
46752;DHT22;32497;48.936;9.270;2022-07-29T02:57:22;17.30;83.30
46752;DHT22;32497;48.936;9.270;2022-07-29T03:02:34;17.30;83.90
46752;DHT22;32497;48.936;9.270;2022-07-29T03:07:36;17.30;83.50
46752;DHT22;32497;48.936;9.270;2022-07-29T03:12:39;17.10;83.90
46752;DHT22;32497;48.936;9.270;2022-07-29T03:17:42;17.10;84.30
46752;DHT22;32497;48.936;9.270;2022-07-29T03:22:44;17.00;84.30
46752;DHT22;32497;48.936;9.270;2022-07-29T03:27:46;16.90;84.90
46752;DHT22;32497;48.936;9.270;2022-07-29T03:32:50;16.90;85.20
46752;DHT22;32497;48.936;9.270;2022-07-29T03:37:51;16.90;85.20
46752;DHT22;32497;48.936;9.270;2022-07-29T03:42:54;16.80;85.50
46752;DHT22;32497;48.936;9.270;2022-07-29T03:48:00;16.80;85.40
46752;DHT22;32497;48.936;9.270;2022-07-29T03:53:02;16.80;85.60
46752;DHT22;32497;48.936;9.270;2022-07-29T03:58:07;16.90;85.50
46752;DHT22;32497;48.936;9.270;2022-07-29T04:03:10;17.20;85.30
46752;DHT22;32497;48.936;9.270;2022-07-29T04:08:11;17.20;84.60
46752;DHT22;32497;48.936;9.270;2022-07-29T04:13:12;17.20;84.70
46752;DHT22;32497;48.936;9.270;2022-07-29T04:18:14;17.20;84.80
46752;DHT22;32497;48.936;9.270;2022-07-29T04:23:15;17.20;84.80
46752;DHT22;32497;48.936;9.270;2022-07-29T04:28:16;17.40;84.40
46752;DHT22;32497;48.936;9.270;2022-07-29T04:33:19;17.30;84.30
46752;DHT22;32497;48.936;9.270;2022-07-29T04:38:20;17.20;84.60
46752;DHT22;32497;48.936;9.270;2022-07-29T04:43:21;17.40;84.70
46752;DHT22;32497;48.936;9.270;2022-07-29T04:48:23;17.50;84.10
46752;DHT22;32497;48.936;9.270;2022-07-29T04:53:24;17.20;84.80
46752;DHT22;32497;48.936;9.270;2022-07-29T04:58:25;17.40;84.60
46752;DHT22;32497;48.936;9.270;2022-07-29T05:03:28;17.20;85.20
46752;DHT22;32497;48.936;9.270;2022-07-29T05:08:29;17.10;85.80
46752;DHT22;32497;48.936;9.270;2022-07-29T05:13:30;17.20;85.70
46752;DHT22;32497;48.936;9.270;2022-07-29T05:18:33;17.60;84.80
46752;DHT22;32497;48.936;9.270;2022-07-29T05:23:34;17.80;83.90
46752;DHT22;32497;48.936;9.270;2022-07-29T05:28:35;18.00;83.60
46752;DHT22;32497;48.936;9.270;2022-07-29T05:33:37;17.90;83.80
46752;DHT22;32497;48.936;9.270;2022-07-29T05:38:38;17.80;84.30
46752;DHT22;32497;48.936;9.270;2022-07-29T05:43:39;18.00;84.10
46752;DHT22;32497;48.936;9.270;2022-07-29T05:48:42;18.20;83.00
46752;DHT22;32497;48.936;9.270;2022-07-29T05:53:43;18.60;82.30
46752;DHT22;32497;48.936;9.270;2022-07-29T05:58:44;18.90;81.70
46752;DHT22;32497;48.936;9.270;2022-07-29T06:03:46;19.50;80.90
46752;DHT22;32497;48.936;9.270;2022-07-29T06:08:47;19.60;80.20
46752;DHT22;32497;48.936;9.270;2022-07-29T06:13:48;19.50;79.90
46752;DHT22;32497;48.936;9.270;2022-07-29T06:18:50;20.10;79.90
46752;DHT22;32497;48.936;9.270;2022-07-29T06:23:51;20.40;77.60
46752;DHT22;32497;48.936;9.270;2022-07-29T06:28:54;21.10;75.50
46752;DHT22;32497;48.936;9.270;2022-07-29T06:33:57;22.10;72.10
46752;DHT22;32497;48.936;9.270;2022-07-29T06:38:58;22.50;70.90
46752;DHT22;32497;48.936;9.270;2022-07-29T06:43:59;22.40;69.40
46752;DHT22;32497;48.936;9.270;2022-07-29T06:49:01;22.70;68.60
46752;DHT22;32497;48.936;9.270;2022-07-29T06:54:02;23.10;67.00
46752;DHT22;32497;48.936;9.270;2022-07-29T06:59:04;22.70;68.70
46752;DHT22;32497;48.936;9.270;2022-07-29T07:04:07;22.90;68.90
46752;DHT22;32497;48.936;9.270;2022-07-29T07:09:08;22.70;68.60
46752;DHT22;32497;48.936;9.270;2022-07-29T07:14:09;23.00;68.50
46752;DHT22;32497;48.936;9.270;2022-07-29T07:19:11;23.30;67.90
46752;DHT22;32497;48.936;9.270;2022-07-29T07:24:12;23.70;65.30
46752;DHT22;32497;48.936;9.270;2022-07-29T07:29:13;23.90;63.90
46752;DHT22;32497;48.936;9.270;2022-07-29T07:34:16;24.10;63.40
46752;DHT22;32497;48.936;9.270;2022-07-29T07:39:17;24.80;62.00
46752;DHT22;32497;48.936;9.270;2022-07-29T07:44:18;25.10;59.60
46752;DHT22;32497;48.936;9.270;2022-07-29T07:49:20;24.20;60.20
46752;DHT22;32497;48.936;9.270;2022-07-29T07:54:21;24.20;62.70
46752;DHT22;32497;48.936;9.270;2022-07-29T07:59:22;24.60;62.50
46752;DHT22;32497;48.936;9.270;2022-07-29T08:04:24;24.90;60.20
46752;DHT22;32497;48.936;9.270;2022-07-29T08:09:27;25.40;58.60
46752;DHT22;32497;48.936;9.270;2022-07-29T08:14:28;24.00;61.30
46752;DHT22;32497;48.936;9.270;2022-07-29T08:19:31;24.90;59.70
46752;DHT22;32497;48.936;9.270;2022-07-29T08:24:32;25.80;57.10
46752;DHT22;32497;48.936;9.270;2022-07-29T08:29:33;27.10;53.40
46752;DHT22;32497;48.936;9.270;2022-07-29T08:34:35;27.90;53.80
46752;DHT22;32497;48.936;9.270;2022-07-29T08:39:36;27.60;52.90
46752;DHT22;32497;48.936;9.270;2022-07-29T08:44:37;27.70;51.60
46752;DHT22;32497;48.936;9.270;2022-07-29T08:49:40;28.60;50.20
46752;DHT22;32497;48.936;9.270;2022-07-29T08:54:43;28.70;50.00
46752;DHT22;32497;48.936;9.270;2022-07-29T08:59:46;28.20;48.60
46752;DHT22;32497;48.936;9.270;2022-07-29T09:04:49;28.30;46.70
46752;DHT22;32497;48.936;9.270;2022-07-29T09:09:50;27.50;49.30
46752;DHT22;32497;48.936;9.270;2022-07-29T09:14:51;27.60;49.00
46752;DHT22;32497;48.936;9.270;2022-07-29T09:20:11;28.50;49.30
46752;DHT22;32497;48.936;9.270;2022-07-29T09:25:12;29.20;44.10
46752;DHT22;32497;48.936;9.270;2022-07-29T09:30:15;29.30;44.30
46752;DHT22;32497;48.936;9.270;2022-07-29T09:35:22;29.80;44.50
46752;DHT22;32497;48.936;9.270;2022-07-29T09:40:25;29.50;42.70
46752;DHT22;32497;48.936;9.270;2022-07-29T09:45:30;29.80;44.00
46752;DHT22;32497;48.936;9.270;2022-07-29T09:50:37;29.40;47.30
46752;DHT22;32497;48.936;9.270;2022-07-29T09:55:48;28.70;46.60
46752;DHT22;32497;48.936;9.270;2022-07-29T10:00:51;28.60;46.30
46752;DHT22;32497;48.936;9.270;2022-07-29T10:06:10;28.20;44.60
46752;DHT22;32497;48.936;9.270;2022-07-29T10:11:13;28.40;45.50
46752;DHT22;32497;48.936;9.270;2022-07-29T10:16:15;28.20;46.20
46752;DHT22;32497;48.936;9.270;2022-07-29T10:21:19;28.00;45.90
46752;DHT22;32497;48.936;9.270;2022-07-29T10:26:20;28.20;47.10
46752;DHT22;32497;48.936;9.270;2022-07-29T10:31:26;28.00;45.10
46752;DHT22;32497;48.936;9.270;2022-07-29T10:36:41;27.60;45.10
46752;DHT22;32497;48.936;9.270;2022-07-29T10:41:59;27.60;45.90
46752;DHT22;32497;48.936;9.270;2022-07-29T10:47:02;27.40;45.00
46752;DHT22;32497;48.936;9.270;2022-07-29T10:52:06;27.30;47.60
46752;DHT22;32497;48.936;9.270;2022-07-29T10:57:12;26.80;47.00
46752;DHT22;32497;48.936;9.270;2022-07-29T11:02:45;26.60;50.50
46752;DHT22;32497;48.936;9.270;2022-07-29T11:08:18;26.40;46.50
46752;DHT22;32497;48.936;9.270;2022-07-29T11:13:45;26.30;47.20
46752;DHT22;32497;48.936;9.270;2022-07-29T11:19:23;26.10;48.40
46752;DHT22;32497;48.936;9.270;2022-07-29T11:24:27;26.20;48.70
46752;DHT22;32497;48.936;9.270;2022-07-29T11:29:28;26.50;50.70
46752;DHT22;32497;48.936;9.270;2022-07-29T11:34:30;26.80;50.00
46752;DHT22;32497;48.936;9.270;2022-07-29T11:39:34;26.90;48.70
46752;DHT22;32497;48.936;9.270;2022-07-29T11:44:53;26.80;51.60
46752;DHT22;32497;48.936;9.270;2022-07-29T11:49:56;26.50;48.10
46752;DHT22;32497;48.936;9.270;2022-07-29T11:55:02;26.80;46.50
46752;DHT22;32497;48.936;9.270;2022-07-29T12:00:05;27.50;44.30
46752;DHT22;32497;48.936;9.270;2022-07-29T12:05:07;27.60;42.90
46752;DHT22;32497;48.936;9.270;2022-07-29T12:10:12;27.70;44.80
46752;DHT22;32497;48.936;9.270;2022-07-29T12:15:14;28.70;45.90
46752;DHT22;32497;48.936;9.270;2022-07-29T12:20:22;28.20;48.70
46752;DHT22;32497;48.936;9.270;2022-07-29T12:25:25;29.10;46.50
46752;DHT22;32497;48.936;9.270;2022-07-29T12:30:35;27.10;50.60
46752;DHT22;32497;48.936;9.270;2022-07-29T12:35:37;26.20;53.50
46752;DHT22;32497;48.936;9.270;2022-07-29T12:40:43;26.80;51.20
46752;DHT22;32497;48.936;9.270;2022-07-29T12:45:48;26.60;51.20
46752;DHT22;32497;48.936;9.270;2022-07-29T12:50:57;26.90;48.60
46752;DHT22;32497;48.936;9.270;2022-07-29T12:56:00;26.60;52.70
46752;DHT22;32497;48.936;9.270;2022-07-29T13:01:05;26.20;54.40
46752;DHT22;32497;48.936;9.270;2022-07-29T13:06:06;26.60;55.90
46752;DHT22;32497;48.936;9.270;2022-07-29T13:11:08;26.10;55.20
46752;DHT22;32497;48.936;9.270;2022-07-29T13:16:09;26.20;52.40
46752;DHT22;32497;48.936;9.270;2022-07-29T13:21:11;25.70;52.00
46752;DHT22;32497;48.936;9.270;2022-07-29T13:26:14;25.10;53.30
46752;DHT22;32497;48.936;9.270;2022-07-29T13:31:15;24.70;52.00
46752;DHT22;32497;48.936;9.270;2022-07-29T13:36:16;24.50;52.70
46752;DHT22;32497;48.936;9.270;2022-07-29T13:41:18;24.20;52.80
46752;DHT22;32497;48.936;9.270;2022-07-29T13:46:19;24.00;53.00
46752;DHT22;32497;48.936;9.270;2022-07-29T13:51:20;24.20;53.30
46752;DHT22;32497;48.936;9.270;2022-07-29T13:56:23;24.70;52.30
46752;DHT22;32497;48.936;9.270;2022-07-29T14:01:24;25.10;53.30
46752;DHT22;32497;48.936;9.270;2022-07-29T14:06:25;25.00;53.60
46752;DHT22;32497;48.936;9.270;2022-07-29T14:11:27;24.70;55.40
46752;DHT22;32497;48.936;9.270;2022-07-29T14:16:28;24.40;57.80
46752;DHT22;32497;48.936;9.270;2022-07-29T14:21:30;24.30;58.40
46752;DHT22;32497;48.936;9.270;2022-07-29T14:26:33;23.80;60.80
46752;DHT22;32497;48.936;9.270;2022-07-29T14:31:34;24.30;60.20
46752;DHT22;32497;48.936;9.270;2022-07-29T14:36:35;24.10;61.20
46752;DHT22;32497;48.936;9.270;2022-07-29T14:41:58;24.20;61.80
46752;DHT22;32497;48.936;9.270;2022-07-29T14:46:59;24.20;60.60
46752;DHT22;32497;48.936;9.270;2022-07-29T14:52:00;24.30;59.90
46752;DHT22;32497;48.936;9.270;2022-07-29T14:57:03;24.70;57.20
46752;DHT22;32497;48.936;9.270;2022-07-29T15:02:04;24.70;58.30
46752;DHT22;32497;48.936;9.270;2022-07-29T15:07:05;24.90;57.20
46752;DHT22;32497;48.936;9.270;2022-07-29T15:12:08;24.90;56.90
46752;DHT22;32497;48.936;9.270;2022-07-29T15:17:09;24.90;55.50
46752;DHT22;32497;48.936;9.270;2022-07-29T15:22:10;24.80;55.90
46752;DHT22;32497;48.936;9.270;2022-07-29T15:32:24;24.60;57.60
46752;DHT22;32497;48.936;9.270;2022-07-29T15:37:25;24.80;58.80
46752;DHT22;32497;48.936;9.270;2022-07-29T15:42:26;25.20;58.60
46752;DHT22;32497;48.936;9.270;2022-07-29T15:47:29;25.40;56.70
46752;DHT22;32497;48.936;9.270;2022-07-29T15:52:30;24.70;59.60
46752;DHT22;32497;48.936;9.270;2022-07-29T15:57:31;24.60;59.30
46752;DHT22;32497;48.936;9.270;2022-07-29T16:02:34;25.00;58.80
46752;DHT22;32497;48.936;9.270;2022-07-29T16:07:35;25.00;57.80
46752;DHT22;32497;48.936;9.270;2022-07-29T16:12:36;25.20;58.70
46752;DHT22;32497;48.936;9.270;2022-07-29T16:17:39;25.50;52.90
46752;DHT22;32497;48.936;9.270;2022-07-29T16:22:40;25.80;46.90
46752;DHT22;32497;48.936;9.270;2022-07-29T16:27:41;25.90;52.30
46752;DHT22;32497;48.936;9.270;2022-07-29T16:32:43;25.70;56.50
46752;DHT22;32497;48.936;9.270;2022-07-29T16:37:44;25.60;53.70
46752;DHT22;32497;48.936;9.270;2022-07-29T16:42:45;25.90;44.00
46752;DHT22;32497;48.936;9.270;2022-07-29T16:47:49;26.20;41.60
46752;DHT22;32497;48.936;9.270;2022-07-29T16:52:51;26.20;40.20
46752;DHT22;32497;48.936;9.270;2022-07-29T16:57:52;26.40;40.40
46752;DHT22;32497;48.936;9.270;2022-07-29T17:02:55;26.30;40.00
46752;DHT22;32497;48.936;9.270;2022-07-29T17:07:56;26.50;40.20
46752;DHT22;32497;48.936;9.270;2022-07-29T17:12:57;26.70;40.90
46752;DHT22;32497;48.936;9.270;2022-07-29T17:18:00;26.70;39.20
46752;DHT22;32497;48.936;9.270;2022-07-29T17:23:01;26.70;40.20
46752;DHT22;32497;48.936;9.270;2022-07-29T17:28:02;26.80;38.90
46752;DHT22;32497;48.936;9.270;2022-07-29T17:33:05;26.70;38.80
46752;DHT22;32497;48.936;9.270;2022-07-29T17:38:06;26.50;37.60
46752;DHT22;32497;48.936;9.270;2022-07-29T17:43:07;26.60;39.20
46752;DHT22;32497;48.936;9.270;2022-07-29T17:48:09;26.50;38.60
46752;DHT22;32497;48.936;9.270;2022-07-29T17:53:10;26.30;38.00
46752;DHT22;32497;48.936;9.270;2022-07-29T17:58:11;26.30;37.50
46752;DHT22;32497;48.936;9.270;2022-07-29T18:03:13;26.00;38.90
46752;DHT22;32497;48.936;9.270;2022-07-29T18:08:15;25.90;38.20
46752;DHT22;32497;48.936;9.270;2022-07-29T18:13:16;25.70;55.10
46752;DHT22;32497;48.936;9.270;2022-07-29T18:18:19;25.30;58.70
46752;DHT22;32497;48.936;9.270;2022-07-29T18:23:20;24.80;60.70
46752;DHT22;32497;48.936;9.270;2022-07-29T18:28:21;24.20;62.50
46752;DHT22;32497;48.936;9.270;2022-07-29T18:33:23;24.00;63.70
46752;DHT22;32497;48.936;9.270;2022-07-29T18:38:24;24.10;64.10
46752;DHT22;32497;48.936;9.270;2022-07-29T18:43:25;24.10;63.20
46752;DHT22;32497;48.936;9.270;2022-07-29T18:48:28;24.20;62.80
46752;DHT22;32497;48.936;9.270;2022-07-29T18:53:31;23.90;64.10
46752;DHT22;32497;48.936;9.270;2022-07-29T18:58:32;23.80;64.50
46752;DHT22;32497;48.936;9.270;2022-07-29T19:03:34;23.70;65.10
46752;DHT22;32497;48.936;9.270;2022-07-29T19:08:35;23.70;64.60
46752;DHT22;32497;48.936;9.270;2022-07-29T19:13:36;23.50;64.80
46752;DHT22;32497;48.936;9.270;2022-07-29T19:18:39;23.40;65.30
46752;DHT22;32497;48.936;9.270;2022-07-29T19:23:40;23.20;65.60
46752;DHT22;32497;48.936;9.270;2022-07-29T19:28:41;23.20;66.40
46752;DHT22;32497;48.936;9.270;2022-07-29T19:33:43;23.10;65.80
46752;DHT22;32497;48.936;9.270;2022-07-29T19:38:44;23.00;64.40
46752;DHT22;32497;48.936;9.270;2022-07-29T19:43:45;22.90;63.20
46752;DHT22;32497;48.936;9.270;2022-07-29T19:48:48;22.90;63.40
46752;DHT22;32497;48.936;9.270;2022-07-29T19:53:49;22.70;61.90
46752;DHT22;32497;48.936;9.270;2022-07-29T19:58:50;22.40;63.70
46752;DHT22;32497;48.936;9.270;2022-07-29T20:03:53;22.30;64.30
46752;DHT22;32497;48.936;9.270;2022-07-29T20:08:54;22.20;66.20
46752;DHT22;32497;48.936;9.270;2022-07-29T20:13:55;22.00;68.50
46752;DHT22;32497;48.936;9.270;2022-07-29T20:18:57;21.80;68.10
46752;DHT22;32497;48.936;9.270;2022-07-29T20:23:58;21.70;67.70
46752;DHT22;32497;48.936;9.270;2022-07-29T20:28:59;21.70;68.30
46752;DHT22;32497;48.936;9.270;2022-07-29T20:34:02;21.60;68.60
46752;DHT22;32497;48.936;9.270;2022-07-29T20:39:04;21.50;68.90
46752;DHT22;32497;48.936;9.270;2022-07-29T20:44:05;21.40;68.50
46752;DHT22;32497;48.936;9.270;2022-07-29T20:49:08;21.30;68.60
46752;DHT22;32497;48.936;9.270;2022-07-29T20:54:09;21.20;68.60
46752;DHT22;32497;48.936;9.270;2022-07-29T20:59:10;21.20;68.70
46752;DHT22;32497;48.936;9.270;2022-07-29T21:04:12;21.10;68.70
46752;DHT22;32497;48.936;9.270;2022-07-29T21:09:13;21.00;68.40
46752;DHT22;32497;48.936;9.270;2022-07-29T21:14:14;20.70;69.50
46752;DHT22;32497;48.936;9.270;2022-07-29T21:19:17;20.60;69.70
46752;DHT22;32497;48.936;9.270;2022-07-29T21:24:18;20.50;69.60
46752;DHT22;32497;48.936;9.270;2022-07-29T21:29:19;20.50;69.50
46752;DHT22;32497;48.936;9.270;2022-07-29T21:34:21;20.30;69.50
46752;DHT22;32497;48.936;9.270;2022-07-29T21:39:22;20.20;69.90
46752;DHT22;32497;48.936;9.270;2022-07-29T21:44:23;20.00;70.90
46752;DHT22;32497;48.936;9.270;2022-07-29T21:49:26;19.90;71.80
46752;DHT22;32497;48.936;9.270;2022-07-29T21:54:27;19.80;71.80
46752;DHT22;32497;48.936;9.270;2022-07-29T21:59:28;19.90;71.60
46752;DHT22;32497;48.936;9.270;2022-07-29T22:04:30;19.80;71.90
46752;DHT22;32497;48.936;9.270;2022-07-29T22:09:31;19.70;72.30
46752;DHT22;32497;48.936;9.270;2022-07-29T22:14:32;19.60;72.70
46752;DHT22;32497;48.936;9.270;2022-07-29T22:19:35;19.60;72.70
46752;DHT22;32497;48.936;9.270;2022-07-29T22:24:36;19.30;73.00
46752;DHT22;32497;48.936;9.270;2022-07-29T22:29:37;19.30;73.20
46752;DHT22;32497;48.936;9.270;2022-07-29T22:34:40;19.40;73.20
46752;DHT22;32497;48.936;9.270;2022-07-29T22:39:41;19.40;73.30
46752;DHT22;32497;48.936;9.270;2022-07-29T22:44:42;19.50;73.80
46752;DHT22;32497;48.936;9.270;2022-07-29T22:49:44;19.40;74.50
46752;DHT22;32497;48.936;9.270;2022-07-29T22:54:45;19.40;74.90
46752;DHT22;32497;48.936;9.270;2022-07-29T22:59:46;19.40;73.90
46752;DHT22;32497;48.936;9.270;2022-07-29T23:04:48;19.20;74.50
46752;DHT22;32497;48.936;9.270;2022-07-29T23:09:50;19.20;74.00
46752;DHT22;32497;48.936;9.270;2022-07-29T23:14:51;19.20;73.90
46752;DHT22;32497;48.936;9.270;2022-07-29T23:19:53;19.10;74.40
46752;DHT22;32497;48.936;9.270;2022-07-29T23:24:54;19.10;73.50
46752;DHT22;32497;48.936;9.270;2022-07-29T23:29:55;19.20;72.70
46752;DHT22;32497;48.936;9.270;2022-07-29T23:34:57;19.30;72.60
46752;DHT22;32497;48.936;9.270;2022-07-29T23:39:58;19.20;71.50
46752;DHT22;32497;48.936;9.270;2022-07-29T23:44:59;19.10;71.40
46752;DHT22;32497;48.936;9.270;2022-07-29T23:50:02;19.10;71.70
46752;DHT22;32497;48.936;9.270;2022-07-29T23:55:04;19.10;71.20
